createdAt,value
2022-10-29T00:00:56.790Z,62.20
2022-10-29T00:03:24.168Z,62.11
2022-10-29T00:06:04.249Z,61.94
2022-10-29T00:08:34.280Z,61.77
2022-10-29T00:11:20.321Z,62.17
2022-10-29T00:13:49.291Z,62.26
2022-10-29T00:16:20.167Z,61.87
2022-10-29T00:18:47.136Z,62.17
2022-10-29T00:21:17.872Z,62.30
2022-10-29T00:23:44.822Z,62.48
2022-10-29T00:26:12.166Z,62.30
2022-10-29T00:28:39.067Z,62.80
2022-10-29T00:31:16.971Z,62.58
2022-10-29T00:33:43.904Z,63.04
2022-10-29T00:36:17.956Z,63.16
2022-10-29T00:38:45.714Z,63.21
2022-10-29T00:41:16.796Z,63.22
2022-10-29T00:43:53.079Z,63.11
2022-10-29T00:46:35.543Z,62.96
2022-10-29T00:49:03.173Z,63.02
2022-10-29T00:51:32.238Z,62.95
2022-10-29T00:54:05.272Z,63.00
2022-10-29T00:56:37.114Z,62.90
2022-10-29T00:59:05.973Z,62.90
2022-10-29T01:01:33.056Z,62.97
2022-10-29T01:04:00.298Z,62.96
2022-10-29T01:06:29.141Z,62.70
2022-10-29T01:08:56.010Z,62.78
2022-10-29T01:11:46.181Z,62.83
2022-10-29T01:14:40.585Z,63.18
2022-10-29T01:17:39.212Z,63.20
2022-10-29T01:20:36.466Z,63.14
2022-10-29T01:23:51.582Z,62.74
2022-10-29T01:27:03.350Z,63.08
2022-10-29T01:30:13.932Z,62.84
2022-10-29T01:33:01.697Z,63.34
2022-10-29T01:36:33.722Z,63.57
2022-10-29T01:39:17.189Z,63.50
2022-10-29T01:42:15.167Z,63.66
2022-10-29T01:45:18.278Z,63.31
2022-10-29T01:47:54.245Z,63.44
2022-10-29T01:50:23.692Z,63.29
2022-10-29T01:52:53.127Z,63.70
2022-10-29T01:55:29.986Z,63.72
2022-10-29T01:57:57.331Z,63.70
2022-10-29T02:00:25.579Z,63.82
2022-10-29T02:03:40.691Z,64.41
2022-10-29T02:06:37.183Z,64.46
2022-10-29T02:09:19.897Z,64.52
2022-10-29T02:11:46.639Z,64.26
2022-10-29T02:14:33.391Z,64.65
2022-10-29T02:17:01.727Z,64.37
2022-10-29T02:19:32.942Z,64.64
2022-10-29T02:21:59.841Z,65.20
2022-10-29T02:24:26.787Z,64.76
2022-10-29T02:26:53.870Z,64.87
2022-10-29T02:29:21.382Z,65.37
2022-10-29T02:31:48.266Z,65.41
2022-10-29T02:34:15.126Z,64.97
2022-10-29T02:36:42.048Z,64.88
2022-10-29T02:39:08.918Z,64.88
2022-10-29T02:41:35.808Z,64.79
2022-10-29T02:44:02.673Z,65.13
2022-10-29T02:46:30.323Z,65.42
2022-10-29T02:48:57.427Z,65.56
2022-10-29T02:51:24.307Z,65.29
2022-10-29T02:53:51.199Z,65.24
2022-10-29T02:56:18.075Z,65.01
2022-10-29T02:58:44.945Z,65.37
2022-10-29T03:01:11.935Z,65.06
2022-10-29T03:03:38.840Z,65.01
2022-10-29T03:06:12.693Z,65.69
2022-10-29T03:08:39.562Z,65.69
2022-10-29T03:11:06.457Z,65.33
2022-10-29T03:13:33.407Z,65.22
2022-10-29T03:16:00.328Z,65.20
2022-10-29T03:18:27.207Z,65.38
2022-10-29T03:20:54.110Z,65.92
2022-10-29T03:23:22.147Z,66.04
2022-10-29T03:25:58.053Z,65.61
2022-10-29T03:28:28.070Z,65.59
2022-10-29T03:30:55.167Z,65.88
2022-10-29T03:33:22.042Z,65.98
2022-10-29T03:35:49.006Z,65.63
2022-10-29T03:38:15.954Z,65.87
2022-10-29T03:40:43.786Z,65.92
2022-10-29T03:43:10.668Z,66.14
2022-10-29T03:45:37.529Z,65.36
2022-10-29T03:48:05.148Z,65.51
2022-10-29T03:50:32.041Z,65.72
2022-10-29T03:52:59.063Z,65.50
2022-10-29T03:55:26.079Z,65.45
2022-10-29T03:57:53.095Z,66.08
2022-10-29T04:00:20.106Z,65.84
2022-10-29T04:02:47.147Z,66.18
2022-10-29T04:05:14.197Z,65.96
2022-10-29T04:07:41.109Z,65.57
2022-10-29T04:10:08.420Z,65.91
2022-10-29T04:12:35.293Z,65.67
2022-10-29T04:15:02.165Z,65.56
2022-10-29T04:17:29.025Z,66.14
2022-10-29T04:19:55.919Z,66.08
2022-10-29T04:30:44.051Z,65.70
2022-10-29T04:33:10.946Z,65.71
2022-10-29T04:35:37.810Z,65.70
2022-10-29T04:38:12.520Z,65.83
2022-10-29T04:40:39.572Z,65.63
2022-10-29T04:43:06.454Z,65.69
2022-10-29T04:45:33.554Z,65.63
2022-10-29T04:48:04.973Z,65.60
2022-10-29T04:50:33.399Z,65.43
2022-10-29T04:53:05.778Z,65.56
2022-10-29T04:55:36.546Z,65.85
2022-10-29T04:58:03.431Z,65.66
2022-10-29T05:00:30.345Z,65.48
2022-10-29T05:02:57.426Z,65.72
2022-10-29T05:05:25.060Z,65.62
2022-10-29T05:08:03.115Z,66.06
2022-10-29T05:10:33.367Z,65.80
2022-10-29T05:13:02.921Z,65.34
2022-10-29T05:15:30.640Z,65.86
2022-10-29T05:17:58.063Z,65.61
2022-10-29T05:20:26.241Z,65.27
2022-10-29T05:23:08.447Z,65.60
2022-10-29T05:25:38.639Z,65.22
2022-10-29T05:28:14.462Z,65.54
2022-10-29T05:30:41.947Z,65.43
2022-10-29T05:33:09.954Z,65.94
2022-10-29T05:35:37.295Z,65.82
2022-10-29T05:38:04.797Z,66.24
2022-10-29T05:40:32.330Z,66.14
2022-10-29T05:42:59.641Z,66.38
2022-10-29T05:45:26.877Z,66.21
2022-10-29T05:48:02.042Z,66.49
2022-10-29T05:50:30.612Z,66.38
2022-10-29T05:53:03.887Z,66.34
2022-10-29T05:55:32.631Z,66.75
2022-10-29T05:58:09.618Z,66.79
2022-10-29T06:00:39.893Z,66.67
2022-10-29T06:03:18.724Z,66.79
2022-10-29T06:05:47.226Z,66.96
2022-10-29T06:08:14.381Z,66.07
2022-10-29T06:10:41.562Z,66.42
2022-10-29T06:13:16.295Z,66.72
2022-10-29T06:15:43.207Z,66.26
2022-10-29T06:18:10.364Z,66.62
2022-10-29T06:20:38.760Z,66.42
2022-10-29T06:23:06.416Z,66.54
2022-10-29T06:25:33.573Z,66.78
2022-10-29T06:28:10.147Z,66.58
2022-10-29T06:30:37.304Z,66.30
2022-10-29T06:33:05.258Z,66.41
2022-10-29T06:35:32.475Z,66.77
2022-10-29T06:37:59.880Z,66.48
2022-10-29T06:40:27.242Z,66.66
2022-10-29T06:43:06.017Z,66.52
2022-10-29T06:45:34.509Z,66.90
2022-10-29T06:48:01.967Z,66.88
2022-10-29T06:50:29.185Z,66.36
2022-10-29T06:53:05.147Z,66.70
2022-10-29T06:55:33.654Z,66.56
2022-10-29T06:58:05.255Z,66.57
2022-10-29T07:00:34.210Z,66.68
2022-10-29T07:03:01.446Z,66.57
2022-10-29T07:05:28.376Z,66.76
2022-10-29T07:08:00.683Z,66.69
2022-10-29T07:10:31.270Z,66.76
2022-10-29T07:12:58.657Z,66.89
2022-10-29T07:15:27.718Z,66.85
2022-10-29T07:18:06.167Z,67.24
2022-10-29T07:20:43.394Z,66.93
2022-10-29T07:23:12.161Z,67.20
2022-10-29T07:25:40.597Z,67.34
2022-10-29T07:28:14.857Z,66.99
2022-10-29T07:30:42.925Z,67.49
2022-10-29T07:33:10.129Z,67.34
2022-10-29T07:35:37.105Z,67.22
2022-10-29T07:38:10.094Z,66.94
2022-10-29T07:40:48.355Z,67.22
2022-10-29T07:43:16.109Z,67.39
2022-10-29T07:45:45.314Z,67.18
2022-10-29T07:48:12.194Z,67.26
2022-10-29T07:50:39.407Z,66.98
2022-10-29T07:53:08.167Z,67.39
2022-10-29T07:55:35.276Z,66.61
2022-10-29T07:58:06.442Z,66.91
2022-10-29T08:00:36.534Z,66.64
2022-10-29T08:03:04.278Z,66.05
2022-10-29T08:05:31.971Z,66.17
2022-10-29T08:07:59.928Z,66.09
2022-10-29T08:10:28.076Z,66.16
2022-10-29T08:12:59.230Z,66.07
2022-10-29T08:15:28.645Z,65.73
2022-10-29T08:17:56.682Z,66.27
2022-10-29T08:20:25.926Z,65.74
2022-10-29T08:22:52.819Z,65.93
2022-10-29T08:25:19.825Z,65.38
2022-10-29T08:27:58.148Z,65.03
2022-10-29T08:30:25.031Z,64.91
2022-10-29T08:32:51.889Z,65.26
2022-10-29T08:35:18.794Z,65.17
2022-10-29T08:37:45.904Z,64.99
2022-10-29T08:40:47.150Z,65.04
2022-10-29T08:43:36.222Z,64.52
2022-10-29T08:46:03.941Z,64.66
2022-10-29T08:48:46.547Z,64.30
2022-10-29T08:51:40.686Z,64.36
2022-10-29T08:54:30.300Z,64.09
2022-10-29T08:57:04.571Z,63.22
2022-10-29T08:59:37.158Z,63.32
2022-10-29T09:02:04.217Z,63.26
2022-10-29T09:04:35.710Z,63.00
2022-10-29T09:07:44.122Z,62.50
2022-10-29T09:10:33.734Z,62.50
2022-10-29T09:13:32.900Z,62.02
2022-10-29T09:16:34.300Z,61.70
2022-10-29T09:19:40.552Z,61.33
2022-10-29T09:22:23.775Z,60.92
2022-10-29T09:25:28.882Z,60.92
2022-10-29T09:28:30.558Z,60.98
2022-10-29T09:31:37.645Z,61.14
2022-10-29T09:34:18.989Z,60.69
2022-10-29T09:36:47.899Z,60.55
2022-10-29T09:39:34.794Z,60.30
2022-10-29T09:42:39.827Z,60.34
2022-10-29T09:45:11.553Z,60.49
2022-10-29T09:47:56.044Z,59.64
2022-10-29T09:50:55.971Z,59.50
2022-10-29T09:53:22.875Z,59.63
2022-10-29T09:55:53.694Z,59.76
2022-10-29T09:58:27.022Z,59.45
2022-10-29T10:00:55.217Z,59.85
2022-10-29T10:03:30.593Z,58.88
2022-10-29T10:06:08.582Z,58.99
2022-10-29T10:09:00.358Z,58.98
2022-10-29T10:11:49.764Z,58.77
2022-10-29T10:14:24.856Z,58.28
2022-10-29T10:17:02.121Z,58.50
2022-10-29T10:19:33.137Z,58.83
2022-10-29T10:22:03.892Z,58.83
2022-10-29T10:24:35.523Z,58.54
2022-10-29T10:27:29.851Z,58.77
2022-10-29T10:30:12.948Z,59.06
2022-10-29T10:32:39.900Z,58.97
2022-10-29T10:35:28.149Z,58.86
2022-10-29T10:37:56.348Z,58.38
2022-10-29T10:40:24.885Z,58.47
2022-10-29T10:42:55.659Z,58.45
2022-10-29T10:45:32.542Z,58.27
2022-10-29T10:48:00.841Z,58.38
2022-10-29T10:50:33.123Z,58.47
2022-10-29T10:53:21.459Z,58.17
2022-10-29T10:55:53.413Z,58.12
2022-10-29T10:58:41.677Z,58.16
2022-10-29T11:01:15.606Z,57.66
2022-10-29T11:03:59.092Z,57.73
2022-10-29T11:06:29.533Z,57.42
2022-10-29T11:09:21.454Z,57.58
2022-10-29T11:12:15.806Z,56.87
2022-10-29T11:14:58.151Z,56.59
2022-10-29T11:17:40.607Z,56.43
2022-10-29T11:20:34.461Z,56.76
2022-10-29T11:23:24.669Z,57.42
2022-10-29T11:26:03.935Z,57.51
2022-10-29T11:28:50.329Z,57.48
2022-10-29T11:31:36.585Z,57.27
2022-10-29T11:34:35.602Z,57.19
2022-10-29T11:37:49.422Z,56.80
2022-10-29T11:40:41.147Z,56.63
2022-10-29T11:43:13.646Z,56.44
2022-10-29T11:46:30.637Z,56.02
2022-10-29T11:49:38.117Z,56.13
2022-10-29T11:52:53.399Z,55.52
2022-10-29T11:55:45.302Z,56.06
2022-10-29T11:58:38.064Z,55.70
2022-10-29T12:01:49.640Z,55.86
2022-10-29T12:04:55.614Z,55.93
2022-10-29T12:07:49.652Z,56.09
2022-10-29T12:10:32.578Z,55.50
2022-10-29T12:13:42.796Z,55.47
2022-10-29T12:17:06.184Z,55.85
2022-10-29T12:19:46.528Z,54.96
2022-10-29T12:23:02.487Z,54.90
2022-10-29T12:26:11.284Z,54.99
2022-10-29T12:29:10.859Z,55.23
2022-10-29T12:32:04.819Z,55.14
2022-10-29T12:34:41.284Z,55.75
2022-10-29T12:37:13.628Z,55.70
2022-10-29T12:39:57.193Z,55.27
2022-10-29T12:42:26.801Z,55.48
2022-10-29T12:45:14.817Z,55.75
2022-10-29T12:47:58.251Z,55.52
2022-10-29T12:50:58.405Z,55.54
2022-10-29T12:53:55.427Z,55.52
2022-10-29T12:56:24.212Z,55.87
2022-10-29T12:58:57.196Z,55.67
2022-10-29T13:01:50.200Z,55.72
2022-10-29T13:04:28.903Z,55.61
2022-10-29T13:07:22.691Z,55.82
2022-10-29T13:09:50.082Z,55.45
2022-10-29T13:12:59.610Z,55.31
2022-10-29T13:15:43.135Z,55.53
2022-10-29T13:18:13.010Z,55.68
2022-10-29T13:20:48.651Z,55.73
2022-10-29T13:23:24.331Z,55.37
2022-10-29T13:25:56.307Z,55.53
2022-10-29T13:28:23.041Z,55.84
2022-10-29T13:30:59.980Z,55.70
2022-10-29T13:33:26.726Z,55.80
2022-10-29T13:36:12.902Z,55.58
2022-10-29T13:39:06.189Z,55.62
2022-10-29T13:41:43.960Z,55.62
2022-10-29T13:44:26.191Z,55.37
2022-10-29T13:47:03.652Z,55.51
2022-10-29T13:49:48.326Z,54.96
2022-10-29T13:52:19.388Z,55.33
2022-10-29T13:54:56.531Z,55.11
2022-10-29T13:57:38.862Z,54.95
2022-10-29T14:00:18.879Z,54.89
2022-10-29T14:02:56.513Z,55.16
2022-10-29T14:05:45.503Z,55.08
2022-10-29T14:08:26.532Z,55.26
2022-10-29T14:10:59.372Z,55.39
2022-10-29T14:13:39.871Z,55.08
2022-10-29T14:16:06.616Z,55.33
2022-10-29T14:18:50.394Z,55.18
2022-10-29T14:21:26.932Z,55.21
2022-10-29T14:24:06.938Z,55.43
2022-10-29T14:26:37.455Z,55.44
2022-10-29T14:29:24.979Z,55.29
2022-10-29T14:32:18.557Z,55.60
2022-10-29T14:34:54.823Z,55.36
2022-10-29T14:37:35.072Z,55.75
2022-10-29T14:40:21.548Z,55.68
2022-10-29T14:42:55.910Z,55.74
2022-10-29T14:45:31.257Z,55.58
2022-10-29T14:48:03.201Z,55.67
2022-10-29T14:50:30.983Z,55.89
2022-10-29T14:53:02.192Z,55.76
2022-10-29T14:55:35.099Z,55.79
2022-10-29T14:58:05.152Z,55.96
2022-10-29T15:00:36.971Z,56.24
2022-10-29T15:03:06.110Z,55.94
2022-10-29T15:05:37.705Z,55.98
2022-10-29T15:08:08.698Z,56.19
2022-10-29T15:10:57.202Z,56.12
2022-10-29T15:13:29.823Z,56.16
2022-10-29T15:16:06.963Z,56.54
2022-10-29T15:18:35.129Z,56.31
2022-10-29T15:21:03.846Z,56.28
2022-10-29T15:23:35.453Z,56.57
2022-10-29T15:26:09.698Z,56.39
2022-10-29T15:28:40.851Z,56.48
2022-10-29T15:31:34.857Z,56.79
2022-10-29T15:34:28.556Z,56.62
2022-10-29T15:37:00.145Z,56.87
2022-10-29T15:39:30.086Z,56.84
2022-10-29T15:41:59.879Z,56.86
2022-10-29T15:44:37.648Z,56.79
2022-10-29T15:47:30.104Z,57.09
2022-10-29T15:49:56.972Z,57.12
2022-10-29T15:52:32.719Z,57.13
2022-10-29T15:55:06.253Z,57.27
2022-10-29T15:57:33.325Z,57.12
2022-10-29T16:00:07.944Z,57.08
2022-10-29T16:02:35.687Z,57.35
2022-10-29T16:05:02.623Z,57.28
2022-10-29T16:07:29.595Z,57.51
2022-10-29T16:09:58.483Z,57.20
2022-10-29T16:12:25.850Z,57.21
2022-10-29T16:14:52.718Z,57.39
2022-10-29T16:17:21.138Z,57.45
2022-10-29T16:19:48.253Z,57.43
2022-10-29T16:22:28.514Z,57.54
2022-10-29T16:24:56.246Z,57.41
2022-10-29T16:27:23.326Z,57.50
2022-10-29T16:29:51.682Z,57.65
2022-10-29T16:32:22.662Z,57.48
2022-10-29T16:34:49.795Z,57.69
2022-10-29T16:37:20.349Z,57.81
2022-10-29T16:39:47.335Z,57.64
2022-10-29T16:42:34.580Z,57.98
2022-10-29T16:45:01.931Z,57.84
2022-10-29T16:47:28.938Z,57.80
2022-10-29T16:49:55.937Z,57.93
2022-10-29T16:52:25.281Z,57.89
2022-10-29T16:54:54.484Z,57.97
2022-10-29T16:57:21.405Z,57.74
2022-10-29T16:59:48.279Z,57.61
2022-10-29T17:02:15.189Z,57.93
2022-10-29T17:04:42.147Z,58.04
2022-10-29T17:07:09.206Z,57.70
2022-10-29T17:09:37.099Z,58.10
2022-10-29T17:12:04.236Z,58.11
2022-10-29T17:14:31.139Z,58.05
2022-10-29T17:16:58.523Z,58.07
2022-10-29T17:19:25.475Z,58.11
2022-10-29T17:21:52.359Z,58.20
2022-10-29T17:24:19.239Z,58.32
2022-10-29T17:26:46.130Z,58.43
2022-10-29T17:29:13.034Z,58.50
2022-10-29T17:31:39.917Z,58.34
2022-10-29T17:34:06.878Z,58.39
2022-10-29T17:36:33.737Z,58.52
2022-10-29T17:39:00.650Z,58.54
2022-10-29T17:41:27.526Z,58.63
2022-10-29T17:43:54.422Z,58.58
2022-10-29T17:46:21.285Z,58.62
2022-10-29T17:48:48.170Z,58.86
2022-10-29T17:51:15.449Z,58.71
2022-10-29T17:53:42.363Z,58.74
2022-10-29T17:56:09.257Z,58.61
2022-10-29T17:58:39.437Z,58.86
2022-10-29T18:01:09.147Z,58.78
2022-10-29T18:03:37.112Z,58.76
2022-10-29T18:06:07.469Z,59.17
2022-10-29T18:08:37.174Z,58.67
2022-10-29T18:11:16.939Z,59.09
2022-10-29T18:13:45.395Z,58.78
2022-10-29T18:16:15.999Z,58.85
2022-10-29T18:18:54.710Z,59.13
2022-10-29T18:21:30.324Z,59.18
2022-10-29T18:23:57.220Z,59.05
2022-10-29T18:26:30.701Z,59.23
2022-10-29T18:29:00.122Z,59.13
2022-10-29T18:31:30.467Z,58.99
2022-10-29T18:34:05.145Z,59.31
2022-10-29T18:36:32.433Z,59.40
2022-10-29T18:38:59.556Z,59.07
2022-10-29T18:41:26.565Z,59.32
2022-10-29T18:43:54.475Z,59.10
2022-10-29T18:46:21.931Z,59.65
2022-10-29T18:48:49.804Z,59.73
2022-10-29T18:51:24.434Z,59.53
2022-10-29T18:53:55.874Z,59.46
2022-10-29T18:56:23.677Z,59.43
2022-10-29T18:58:51.046Z,59.54
2022-10-29T19:01:23.938Z,59.63
2022-10-29T19:03:57.190Z,59.30
2022-10-29T19:06:27.354Z,59.71
2022-10-29T19:08:54.548Z,60.02
2022-10-29T19:11:24.933Z,59.73
2022-10-29T19:14:00.489Z,59.57
2022-10-29T19:16:29.236Z,59.82
2022-10-29T19:19:01.418Z,59.96
2022-10-29T19:21:28.424Z,59.77
2022-10-29T19:24:00.036Z,59.87
2022-10-29T19:26:30.714Z,59.82
2022-10-29T19:29:01.279Z,60.16
2022-10-29T19:31:30.910Z,60.02
2022-10-29T19:34:00.996Z,59.92
2022-10-29T19:36:29.682Z,60.16
2022-10-29T19:38:57.289Z,59.80
2022-10-29T19:41:24.729Z,60.12
2022-10-29T19:43:51.635Z,60.45
2022-10-29T19:46:24.516Z,60.06
2022-10-29T19:48:54.084Z,60.50
2022-10-29T19:51:22.072Z,60.35
2022-10-29T19:53:51.409Z,60.58
2022-10-29T19:56:19.261Z,60.28
2022-10-29T19:58:46.833Z,60.26
2022-10-29T20:01:16.897Z,60.31
2022-10-29T20:03:45.070Z,60.20
2022-10-29T20:06:12.996Z,60.72
2022-10-29T20:08:39.961Z,60.78
2022-10-29T20:11:07.180Z,60.88
2022-10-29T20:13:34.101Z,60.96
2022-10-29T20:16:12.129Z,60.79
2022-10-29T20:18:39.159Z,61.00
2022-10-29T20:21:06.844Z,61.38
2022-10-29T20:23:33.801Z,61.69
2022-10-29T20:26:00.889Z,61.57
2022-10-29T20:28:27.815Z,61.51
2022-10-29T20:31:17.685Z,61.74
2022-10-29T20:33:56.905Z,61.52
2022-10-29T20:36:24.825Z,61.12
2022-10-29T20:38:52.338Z,61.62
2022-10-29T20:41:20.155Z,61.49
2022-10-29T20:43:53.293Z,61.54
2022-10-29T20:46:21.600Z,61.03
2022-10-29T20:48:48.737Z,61.56
2022-10-29T20:51:17.131Z,61.62
2022-10-29T20:53:44.895Z,61.48
2022-10-29T20:56:15.900Z,61.47
2022-10-29T20:58:43.599Z,61.62
2022-10-29T21:01:14.153Z,61.87
2022-10-29T21:03:41.899Z,61.64
2022-10-29T21:06:15.796Z,62.15
2022-10-29T21:08:43.983Z,62.10
2022-10-29T21:11:12.569Z,62.22
2022-10-29T21:13:39.520Z,61.87
2022-10-29T21:16:27.223Z,62.40
2022-10-29T21:19:00.403Z,62.32
2022-10-29T21:21:28.893Z,62.08
2022-10-29T21:23:56.880Z,62.54
2022-10-29T21:26:26.153Z,62.23
2022-10-29T21:28:54.028Z,62.33
2022-10-29T21:31:22.358Z,62.15
2022-10-29T21:33:50.970Z,61.71
2022-10-29T21:36:18.401Z,62.11
2022-10-29T21:38:45.359Z,62.01
2022-10-29T21:41:12.327Z,61.80
2022-10-29T21:43:39.742Z,61.88
2022-10-29T21:46:06.942Z,62.27
2022-10-29T21:48:34.091Z,61.79
2022-10-29T21:51:05.212Z,62.14
2022-10-29T21:53:32.486Z,61.91
2022-10-29T21:56:01.764Z,62.45
2022-10-29T21:58:29.041Z,61.95
2022-10-29T22:01:14.491Z,62.08
2022-10-29T22:03:43.686Z,61.83
2022-10-29T22:06:21.746Z,62.21
2022-10-29T22:08:54.373Z,62.04
2022-10-29T22:11:21.961Z,62.09
2022-10-29T22:13:48.928Z,61.79
2022-10-29T22:16:15.913Z,61.91
2022-10-29T22:18:43.171Z,62.11
2022-10-29T22:21:20.548Z,62.05
2022-10-29T22:23:53.663Z,61.83
2022-10-29T22:26:26.888Z,61.98
2022-10-29T22:28:54.270Z,62.18
2022-10-29T22:31:23.120Z,61.84
2022-10-29T22:33:50.522Z,62.25
2022-10-29T22:36:24.110Z,62.12
2022-10-29T22:38:56.333Z,61.94
2022-10-29T22:41:25.708Z,61.75
2022-10-29T22:43:53.063Z,61.82
2022-10-29T22:46:21.556Z,62.16
2022-10-29T22:48:48.901Z,62.47
2022-10-29T22:51:34.170Z,62.33
2022-10-29T22:54:01.405Z,62.39
2022-10-29T22:56:31.787Z,62.20
2022-10-29T22:58:59.438Z,62.03
2022-10-29T23:01:29.907Z,62.19
2022-10-29T23:03:59.775Z,62.76
2022-10-29T23:06:28.029Z,62.72
2022-10-29T23:08:58.310Z,62.69
2022-10-29T23:11:30.062Z,62.92
2022-10-29T23:13:59.953Z,62.77
2022-10-29T23:16:30.095Z,63.31
2022-10-29T23:18:59.887Z,62.93
2022-10-29T23:21:27.422Z,63.03
2022-10-29T23:23:54.630Z,63.03
2022-10-29T23:26:24.130Z,63.26
2022-10-29T23:28:51.183Z,62.99
2022-10-29T23:31:24.212Z,63.39
2022-10-29T23:33:54.584Z,62.91
2022-10-29T23:36:23.533Z,62.96
2022-10-29T23:39:01.488Z,63.03
2022-10-29T23:41:30.348Z,63.41
2022-10-29T23:43:58.239Z,63.36
2022-10-29T23:46:25.375Z,63.21
2022-10-29T23:48:52.248Z,63.45
2022-10-29T23:51:19.298Z,63.49
2022-10-29T23:53:46.261Z,63.46
2022-10-29T23:56:13.154Z,63.71
2022-10-29T23:58:40.038Z,64.01
